Terminal Aerodrome Forecast
Issued by NWS Greer, SC

Home | Current Version | Previous Version | Text Only | Print | Product List | Glossary On
Versions: 1 2 3 4 5 6 7 8 9 10 11 12 13 14 15 16 17 18 19 20 21 22 23 24 25 26 27 28 29 30 31 32 33 34 35 36 37 38 39
035
FTUS42 KGSP 241720
TAFAVL
TAF
KAVL 241720Z 2418/2518 20010KT P6SM FEW045 SCT080 BKN100
     FM242200 19010KT P6SM BKN035
     FM250100 18005KT P6SM BKN035
     FM250400 19005KT P6SM VCSH BKN030
     FM251300 18008G15KT 4SM -SHRA BR OVC020
     FM251600 22010G20KT 5SM -SHRA VCTS OVC015CB=

USA.gov is the U.S. government's official web portal to all federal, state and local government web resources and services.